Time;durP1;ratioP1;P1;durP2;ratioP2;P2;SDS_P1;SDS_P2;PMS_P1;PMS_P2;Temp;Humidity;BMP_temperature;BMP_pressure;BME280_temperature;BME280_humidity;BME280_pressure;Samples;Min_cycle;Max_cycle;Signal;HPM_P1;HPM_P2
2022/07/26 00:01:22;;;;;;;12.18;3.97;;;21.70;99.90;;;21.97;74.73;101191.72;5053617;28;20040;-61
2022/07/26 00:03:54;;;;;;;8.68;4.22;;;21.60;99.90;;;22.05;74.32;101196.75;5053512;28;20045;-61
2022/07/26 00:06:24;;;;;;;7.85;3.80;;;21.60;99.90;;;21.92;73.90;101198.28;5053470;28;20037;-61
2022/07/26 00:08:53;;;;;;;13.82;4.00;;;21.50;99.90;;;21.79;73.77;101202.44;5053214;28;20132;-61
2022/07/26 00:11:22;;;;;;;8.43;3.60;;;21.50;99.90;;;21.80;74.17;101204.19;5053662;28;20052;-61
2022/07/26 00:13:50;;;;;;;11.43;3.70;;;21.40;99.90;;;21.85;74.12;101211.16;5053018;28;20527;-60
2022/07/26 00:16:20;;;;;;;21.88;4.65;;;21.40;99.90;;;21.85;73.74;101211.16;5053072;28;20045;-61
2022/07/26 00:18:48;;;;;;;7.90;4.05;;;21.50;99.90;;;21.78;73.90;101217.72;5053050;28;20041;-61
2022/07/26 00:21:18;;;;;;;12.90;4.38;;;21.40;99.90;;;21.83;73.24;101215.75;5052893;28;20041;-61
2022/07/26 00:23:47;;;;;;;7.27;3.80;;;21.40;99.90;;;21.78;73.34;101217.72;5053540;28;20103;-60
2022/07/26 00:26:15;;;;;;;10.80;4.38;;;21.40;99.90;;;21.47;73.84;101215.53;5053271;28;20348;-61
2022/07/26 00:28:43;;;;;;;11.07;3.92;;;21.20;99.90;;;21.48;74.32;101217.28;5051579;28;20045;-61
2022/07/26 00:31:12;;;;;;;10.10;4.07;;;21.10;99.90;;;21.63;73.47;101217.53;5051610;28;20045;-61
2022/07/26 00:33:40;;;;;;;10.48;4.22;;;21.20;99.90;;;21.40;74.57;101222.13;5053069;28;20041;-61
2022/07/26 00:36:09;;;;;;;10.82;4.50;;;21.10;99.90;;;21.41;74.46;101229.25;5053095;28;20041;-60
2022/07/26 00:38:39;;;;;;;7.90;4.20;;;21.00;99.90;;;21.53;73.11;101230.53;5052760;28;20041;-61
2022/07/26 00:41:08;;;;;;;8.07;4.28;;;21.10;99.90;;;21.26;72.52;101239.78;5052728;28;20491;-61
2022/07/26 00:43:36;;;;;;;11.90;4.18;;;20.90;99.90;;;21.22;72.21;101220.22;5053009;28;20033;-61
2022/07/26 00:46:05;;;;;;;7.95;4.57;;;20.90;99.90;;;21.30;72.18;101227.94;5052591;28;20069;-61
2022/07/26 00:48:33;;;;;;;8.88;4.25;;;20.90;99.90;;;21.48;71.79;101236.13;5052718;28;20037;-61
2022/07/26 00:51:02;;;;;;;13.23;4.53;;;21.00;99.90;;;21.48;71.49;101243.31;5052708;28;20050;-61
2022/07/26 00:53:30;;;;;;;12.75;4.75;;;21.00;99.90;;;21.40;71.09;101245.47;5052888;28;20372;-60
2022/07/26 00:56:00;;;;;;;15.55;4.90;;;21.00;99.90;;;21.44;71.50;101242.59;5052628;28;20061;-61
2022/07/26 00:58:28;;;;;;;9.20;4.45;;;21.00;99.90;;;21.23;71.70;101239.94;5052607;28;20075;-61
2022/07/26 01:00:56;;;;;;;13.05;3.83;;;20.90;99.90;;;21.07;72.92;101249.56;5052563;28;20071;-60
2022/07/26 01:03:24;;;;;;;14.23;4.65;;;20.70;99.90;;;20.83;73.56;101229.03;5052563;28;20123;-60
2022/07/26 01:05:57;;;;;;;9.25;4.07;;;20.60;99.90;;;21.00;74.17;101256.13;5051618;28;20049;-60
2022/07/26 01:08:26;;;;;;;9.35;3.95;;;20.50;99.90;;;21.00;74.30;101256.97;5051246;28;20095;-60
2022/07/26 01:10:54;;;;;;;13.98;4.68;;;20.60;99.90;;;20.94;74.51;101253.69;5052757;28;20095;-61
2022/07/26 01:13:26;;;;;;;10.30;4.53;;;20.60;99.90;;;21.06;73.96;101258.59;5052832;28;20041;-61
2022/07/26 01:16:00;;;;;;;12.40;4.10;;;20.60;99.90;;;20.82;73.73;101251.47;5052570;28;20049;-61
2022/07/26 01:18:28;;;;;;;10.18;4.63;;;20.50;99.90;;;20.79;73.91;101254.31;5052698;28;20448;-61
2022/07/26 01:21:00;;;;;;;13.30;4.90;;;20.40;99.90;;;20.92;74.00;101258.25;5054585;28;20045;-60
2022/07/26 01:23:41;;;;;;;12.35;4.38;;;20.50;99.90;;;20.92;73.44;101255.56;5056327;28;20501;-61
2022/07/26 01:26:10;;;;;;;12.95;4.63;;;20.50;99.90;;;20.81;73.68;101260.50;5056436;28;20115;-61
2022/07/26 01:28:41;;;;;;;13.38;5.50;;;20.50;99.90;;;20.75;74.16;101255.38;5056461;28;20052;-60
2022/07/26 01:31:09;;;;;;;11.23;4.88;;;20.40;99.90;;;20.74;74.72;101258.97;5056176;28;20049;-61
2022/07/26 01:33:38;;;;;;;12.15;4.78;;;20.40;99.90;;;20.87;73.97;101261.09;5054821;28;20073;-60
2022/07/26 01:36:07;;;;;;;13.73;4.90;;;20.40;99.90;;;20.73;74.70;101263.47;5056053;28;20032;-60
2022/07/26 01:38:35;;;;;;;16.38;5.10;;;20.30;99.90;;;20.78;75.27;101258.81;5055926;28;20558;-60
2022/07/26 01:41:05;;;;;;;13.15;4.95;;;20.40;99.90;;;20.79;75.12;101257.00;5055943;28;20552;-61
2022/07/26 01:43:34;;;;;;;9.40;4.95;;;20.40;99.90;;;21.00;74.38;101269.56;5056201;28;20049;-60
2022/07/26 01:46:02;;;;;;;9.57;4.72;;;20.50;99.90;;;20.86;74.80;101264.75;5055802;28;20048;-61
2022/07/26 01:48:31;;;;;;;11.07;4.53;;;20.50;99.90;;;20.96;75.01;101271.53;5054776;28;20152;-60
2022/07/26 01:51:00;;;;;;;18.52;5.13;;;20.50;99.90;;;20.81;75.50;101261.34;5055972;28;20041;-60
2022/07/26 01:53:28;;;;;;;11.13;4.53;;;20.50;99.90;;;20.83;76.23;101266.69;5055988;28;20073;-61
2022/07/26 01:55:57;;;;;;;12.95;5.30;;;20.40;99.90;;;20.84;76.17;101260.38;5055667;28;20116;-61
2022/07/26 01:58:26;;;;;;;15.55;5.13;;;20.40;99.90;;;20.78;77.13;101265.97;5055858;28;20084;-61
2022/07/26 02:00:55;;;;;;;13.77;5.10;;;20.40;99.90;;;20.68;77.92;101262.78;5055754;28;20133;-61
2022/07/26 02:03:23;;;;;;;14.15;4.82;;;20.30;99.90;;;20.79;78.21;101267.75;5055810;28;20045;-61
2022/07/26 02:05:51;;;;;;;11.90;4.70;;;20.30;99.90;;;20.76;78.40;101257.09;5055783;28;20049;-61
2022/07/26 02:08:20;;;;;;;13.70;4.53;;;20.40;99.90;;;20.84;78.48;101272.00;5055414;28;20099;-60
2022/07/26 02:11:01;;;;;;;13.45;5.03;;;20.40;99.90;;;20.63;79.78;101268.34;5055479;28;20055;-61
2022/07/26 02:13:34;;;;;;;11.95;4.68;;;20.30;99.90;;;20.72;79.63;101260.84;5055468;28;20493;-60
2022/07/26 02:16:05;;;;;;;12.60;4.70;;;20.30;99.90;;;20.84;79.59;101268.44;5055650;28;20429;-61
2022/07/26 02:18:35;;;;;;;15.02;5.20;;;20.40;99.90;;;20.67;80.36;101272.66;5055318;28;20119;-61
2022/07/26 02:21:05;;;;;;;12.80;5.00;;;20.30;99.90;;;20.81;80.26;101274.81;5055246;28;20045;-61
2022/07/26 02:23:34;;;;;;;15.30;4.90;;;20.40;99.90;;;20.90;80.18;101289.69;5055177;28;20839;-60
2022/07/26 02:26:08;;;;;;;11.77;4.50;;;20.40;99.90;;;20.88;80.47;101275.44;5055176;28;20592;-61
2022/07/26 02:28:38;;;;;;;14.32;4.45;;;20.40;99.90;;;20.81;80.65;101274.81;5055609;28;20041;-61
2022/07/26 02:31:06;;;;;;;9.60;4.07;;;20.40;99.90;;;20.74;80.84;101261.66;5055245;28;20406;-60
2022/07/26 02:33:34;;;;;;;12.38;4.68;;;20.40;99.90;;;20.78;80.53;101280.31;5055238;28;20290;-61
2022/07/26 02:36:03;;;;;;;11.18;4.80;;;20.40;99.90;;;20.65;81.14;101279.91;5054944;28;20526;-61
2022/07/26 02:38:31;;;;;;;13.77;5.13;;;20.30;99.90;;;20.78;80.49;101276.75;5054918;28;20517;-60
2022/07/26 02:41:00;;;;;;;9.95;4.57;;;20.30;99.90;;;20.62;80.87;101282.72;5055149;28;20045;-61
2022/07/26 02:43:29;;;;;;;12.93;4.65;;;20.30;99.90;;;20.61;81.38;101286.34;5055063;28;20453;-60
2022/07/26 02:45:59;;;;;;;11.05;4.53;;;20.20;99.90;;;20.54;81.05;101252.56;5054990;28;20449;-60
2022/07/26 02:48:30;;;;;;;14.55;5.25;;;20.30;99.90;;;20.71;80.71;101277.94;5055012;28;20047;-61
2022/07/26 02:50:58;;;;;;;13.73;4.72;;;20.30;99.90;;;20.53;81.26;101283.09;5070263;28;20132;-60
2022/07/26 02:53:27;;;;;;;13.35;4.20;;;20.20;99.90;;;20.60;81.27;101278.34;5054841;28;20037;-61
2022/07/26 02:55:55;;;;;;;11.68;4.20;;;20.20;99.90;;;20.59;81.07;101288.25;5054478;28;20088;-60
2022/07/26 02:58:25;;;;;;;9.27;4.53;;;20.20;99.90;;;20.62;81.02;101287.22;5054483;28;20139;-60
2022/07/26 03:00:54;;;;;;;11.02;4.68;;;20.20;99.90;;;20.50;81.44;101293.06;5054468;28;20110;-61
2022/07/26 03:03:23;;;;;;;10.68;4.65;;;20.10;99.90;;;20.37;82.64;101287.28;5054285;28;20041;-60
2022/07/26 03:05:52;;;;;;;13.77;4.60;;;20.00;99.90;;;20.48;82.07;101282.38;5054669;28;20037;-60
2022/07/26 03:08:20;;;;;;;10.82;4.15;;;20.00;99.90;;;20.61;81.59;101290.84;5054301;28;20041;-61
2022/07/26 03:10:49;;;;;;;11.52;4.30;;;20.10;99.90;;;20.62;80.82;101293.47;5054203;28;20041;-60
2022/07/26 03:13:17;;;;;;;9.30;3.88;;;20.20;99.90;;;20.46;81.41;101297.69;5054746;28;20045;-61
2022/07/26 03:15:45;;;;;;;9.10;3.88;;;20.10;99.90;;;20.58;81.50;101301.72;5054206;28;20087;-61
2022/07/26 03:18:14;;;;;;;10.30;4.45;;;20.10;99.90;;;20.55;81.32;101305.41;5054364;28;20059;-60
2022/07/26 03:20:44;;;;;;;7.90;3.67;;;20.10;99.90;;;20.56;81.20;101301.78;5054306;28;20045;-60
2022/07/26 03:23:12;;;;;;;5.68;4.03;;;20.10;99.90;;;20.70;80.94;101301.25;5054091;28;20071;-60
2022/07/26 03:25:41;;;;;;;12.40;5.15;;;20.20;99.90;;;20.59;81.38;101296.31;5054014;28;20059;-60
2022/07/26 03:28:09;;;;;;;12.95;5.03;;;20.20;99.90;;;20.61;81.40;101302.47;5054181;28;20053;-60
2022/07/26 03:30:43;;;;;;;10.43;4.45;;;20.20;99.90;;;20.53;81.35;101296.53;5054229;28;20052;-60
2022/07/26 03:33:11;;;;;;;12.10;5.07;;;20.10;99.90;;;20.48;81.15;101308.38;5054388;28;20368;-60
2022/07/26 03:35:40;;;;;;;11.07;4.63;;;20.10;99.90;;;20.52;81.12;101310.91;5053773;28;20514;-62
2022/07/26 03:38:10;;;;;;;9.88;4.53;;;20.10;99.90;;;20.49;81.38;101318.22;5053709;28;20077;-60
2022/07/26 03:40:38;;;;;;;12.10;4.30;;;20.10;99.90;;;20.31;80.81;101311.72;5054275;28;20072;-61
2022/07/26 03:43:07;;;;;;;10.55;4.18;;;20.00;99.90;;;20.41;80.67;101325.69;5052049;28;20047;-60
2022/07/26 03:45:35;;;;;;;10.13;4.55;;;20.00;99.90;;;20.48;80.47;101321.81;5053576;28;20048;-60
2022/07/26 03:48:04;;;;;;;11.73;5.53;;;20.00;99.90;;;20.48;80.54;101311.06;5053934;28;20033;-61
2022/07/26 03:50:33;;;;;;;11.70;4.82;;;20.00;99.90;;;20.47;80.06;101315.59;5053570;28;20041;-60
2022/07/26 03:53:01;;;;;;;11.48;5.22;;;20.00;99.90;;;20.47;80.27;101322.75;5053495;28;20051;-60
2022/07/26 03:58:17;;;;;;;11.80;5.32;;;20.00;99.90;;;20.48;80.26;101319.13;5053452;28;20115;-61
2022/07/26 04:00:46;;;;;;;17.08;5.35;;;20.00;99.90;;;20.42;80.23;101289.81;5053701;28;20051;-60
2022/07/26 04:03:14;;;;;;;12.68;5.15;;;20.10;99.90;;;20.53;79.85;101325.22;5052227;28;20140;-61
2022/07/26 04:05:43;;;;;;;14.48;5.72;;;20.10;99.90;;;20.45;79.86;101317.44;5053343;28;20053;-61
2022/07/26 04:08:16;;;;;;;9.80;4.97;;;20.00;99.90;;;20.49;79.59;101328.97;5053350;28;20120;-60
2022/07/26 04:10:49;;;;;;;10.25;5.00;;;20.10;99.90;;;20.61;78.78;101325.81;5053530;28;20095;-60
2022/07/26 04:13:18;;;;;;;10.45;5.57;;;20.20;99.90;;;20.67;78.73;101329.13;5053229;28;20044;-60
2022/07/26 04:15:47;;;;;;;9.90;5.25;;;20.30;99.90;;;20.54;79.03;101333.22;5053455;28;20151;-61
2022/07/26 04:18:15;;;;;;;9.45;5.13;;;20.20;99.90;;;20.65;78.77;101336.38;5053114;28;20119;-60
2022/07/26 04:20:44;;;;;;;11.20;5.05;;;20.20;99.90;;;20.68;78.38;101340.75;5053659;28;20041;-60
2022/07/26 04:23:12;;;;;;;12.98;5.18;;;20.30;99.90;;;20.74;78.21;101334.25;5052930;28;20091;-60
2022/07/26 04:25:41;;;;;;;9.73;4.93;;;20.30;99.90;;;20.64;77.77;101306.84;5053307;28;20044;-61
2022/07/26 04:28:12;;;;;;;12.60;4.57;;;20.40;99.90;;;20.85;77.70;101334.75;5053028;28;20041;-60
2022/07/26 04:30:41;;;;;;;8.75;3.80;;;20.40;99.90;;;20.91;77.57;101342.53;5053297;28;20375;-60
2022/07/26 04:33:09;;;;;;;8.68;4.78;;;20.50;99.90;;;20.93;77.47;101338.88;5053178;28;20103;-60
2022/07/26 04:35:38;;;;;;;10.75;5.07;;;20.50;99.90;;;20.95;77.55;101345.06;5053188;28;20075;-60
2022/07/26 04:38:06;;;;;;;7.70;4.63;;;20.50;99.90;;;20.94;78.10;101347.81;5052895;28;20525;-60
2022/07/26 04:40:34;;;;;;;10.40;4.88;;;20.50;99.90;;;20.92;78.41;101344.31;5052881;28;20242;-60
2022/07/26 04:43:09;;;;;;;9.35;3.72;;;20.50;99.90;;;20.92;79.17;101347.00;5052797;28;20471;-60
2022/07/26 04:45:43;;;;;;;7.47;4.05;;;20.50;99.90;;;21.01;79.69;101349.34;5053218;28;20049;-60
2022/07/26 04:48:12;;;;;;;7.28;3.60;;;20.60;99.90;;;20.58;81.84;101355.47;5051820;28;20518;-60
2022/07/26 04:50:40;;;;;;;10.63;4.07;;;20.30;99.90;;;20.58;83.21;101358.16;5052720;28;20049;-60
2022/07/26 04:53:09;;;;;;;8.77;3.72;;;20.20;99.90;;;20.83;82.63;101361.69;5053009;28;20442;-60
2022/07/26 04:55:38;;;;;;;11.30;4.03;;;20.40;99.90;;;20.91;82.23;101361.38;5054220;28;20079;-60
2022/07/26 04:58:07;;;;;;;9.20;4.07;;;20.50;99.90;;;20.55;83.89;101366.38;5056736;28;20068;-60
2022/07/26 05:00:37;;;;;;;6.90;3.40;;;20.20;99.90;;;20.33;84.54;101374.34;5057057;28;20051;-60
2022/07/26 05:03:26;;;;;;;7.53;3.47;;;20.00;99.90;;;20.08;85.48;101380.59;5056656;28;20048;-60
2022/07/26 05:05:54;;;;;;;6.93;3.38;;;19.80;99.90;;;20.28;85.29;101383.50;5057202;28;20045;-60
2022/07/26 05:08:22;;;;;;;5.57;3.40;;;19.90;99.90;;;20.30;85.02;101392.38;5055511;28;20118;-60
2022/07/26 05:10:51;;;;;;;6.30;3.38;;;20.00;99.90;;;19.78;86.79;101394.16;5056504;28;20080;-60
2022/07/26 05:13:23;;;;;;;6.03;3.17;;;19.60;99.90;;;19.71;88.30;101402.47;5056595;28;20466;-60
2022/07/26 05:15:59;;;;;;;7.00;3.10;;;19.40;99.90;;;19.84;87.81;101405.63;5055525;28;20099;-59
2022/07/26 05:18:30;;;;;;;6.72;2.95;;;19.40;99.90;;;20.04;87.22;101400.44;5056462;28;20049;-60
2022/07/26 05:21:18;;;;;;;5.15;3.05;;;19.60;99.90;;;19.71;87.74;101406.03;5056389;28;20049;-60
2022/07/26 05:23:47;;;;;;;6.32;3.15;;;19.40;99.90;;;19.70;88.79;101398.91;5056247;28;20399;-59
2022/07/26 05:26:16;;;;;;;5.13;2.90;;;19.40;99.90;;;19.98;88.29;101417.66;5056436;28;20225;-61
2022/07/26 05:28:45;;;;;;;8.20;3.40;;;19.60;99.90;;;20.07;87.95;101420.03;5056234;28;20045;-60
2022/07/26 05:31:15;;;;;;;7.50;3.17;;;19.60;99.90;;;20.24;87.42;101428.41;5056110;28;20406;-60
2022/07/26 05:33:44;;;;;;;7.03;3.35;;;19.90;99.90;;;20.34;87.11;101426.28;5056152;28;20048;-60
2022/07/26 05:36:12;;;;;;;5.13;3.17;;;20.00;99.90;;;20.29;87.16;101420.16;5056092;28;20041;-60
2022/07/26 05:38:41;;;;;;;6.85;3.05;;;20.00;99.90;;;20.33;86.42;101403.00;5056237;28;20048;-60
2022/07/26 05:41:09;;;;;;;7.03;3.15;;;20.10;99.90;;;20.48;86.35;101419.47;5056471;28;20070;-60
2022/07/26 05:43:37;;;;;;;4.78;3.20;;;20.10;99.90;;;20.56;86.17;101421.88;5055839;28;20044;-60
2022/07/26 05:46:10;;;;;;;4.55;3.03;;;20.20;99.90;;;20.57;85.74;101432.59;5056191;28;20045;-60
2022/07/26 05:48:40;;;;;;;6.28;3.25;;;20.20;99.90;;;20.44;84.78;101392.78;5056120;28;20049;-60
2022/07/26 05:51:09;;;;;;;6.35;3.10;;;20.30;99.90;;;20.82;84.12;101431.66;5055842;28;20045;-60
2022/07/26 05:53:38;;;;;;;7.25;3.20;;;20.40;99.90;;;20.88;83.74;101442.19;5056277;28;20132;-61
2022/07/26 05:56:07;;;;;;;5.07;3.13;;;20.50;99.90;;;20.95;83.39;101439.22;5055660;28;20111;-60
2022/07/26 05:58:36;;;;;;;5.68;2.83;;;20.50;99.90;;;20.90;82.96;101434.94;5055674;28;20415;-60
2022/07/26 06:01:05;;;;;;;5.63;2.83;;;20.60;99.90;;;20.89;82.88;101441.25;5055907;28;20103;-60
2022/07/26 06:03:33;;;;;;;7.65;2.90;;;20.50;99.90;;;20.75;83.45;101447.13;5055547;28;20069;-61
2022/07/26 06:06:04;;;;;;;6.20;3.15;;;20.40;99.90;;;20.87;83.53;101462.81;5055586;28;20049;-60
2022/07/26 06:08:33;;;;;;;9.48;3.53;;;20.50;99.90;;;20.95;83.11;101446.41;5055846;28;20053;-60
2022/07/26 06:11:01;;;;;;;8.73;3.50;;;20.60;99.90;;;21.00;83.17;101452.50;5055606;28;20390;-60
2022/07/26 06:13:30;;;;;;;8.77;3.47;;;20.60;99.90;;;21.14;82.58;101455.56;5055599;28;20443;-60
2022/07/26 06:15:58;;;;;;;7.05;3.63;;;20.70;99.90;;;21.05;83.00;101459.50;5055128;28;20107;-60
2022/07/26 06:18:26;;;;;;;6.53;3.47;;;20.60;99.90;;;21.10;82.96;101467.41;5054198;28;20502;-60
2022/07/26 06:20:55;;;;;;;9.77;3.65;;;20.60;99.90;;;20.96;83.05;101467.88;5055301;28;20036;-61
2022/07/26 06:23:31;;;;;;;9.05;3.63;;;20.60;99.90;;;20.91;84.10;101472.53;5055536;28;20063;-61
2022/07/26 06:26:04;;;;;;;7.05;3.30;;;20.40;99.90;;;20.93;84.56;101476.06;5054173;28;20056;-62
2022/07/26 06:28:33;;;;;;;8.50;3.17;;;20.50;99.90;;;21.05;83.73;101490.88;5055168;28;20108;-62
2022/07/26 06:31:01;;;;;;;8.98;3.92;;;20.50;99.90;;;20.78;84.40;101482.00;5055033;28;20041;-61
2022/07/26 06:33:29;;;;;;;8.88;3.75;;;20.40;99.90;;;20.65;85.56;101486.09;5055282;28;20053;-61
2022/07/26 06:35:59;;;;;;;10.35;3.85;;;20.20;99.90;;;20.73;85.49;101485.81;5054944;28;20036;-62
2022/07/26 06:38:29;;;;;;;9.40;3.42;;;20.20;99.90;;;20.97;84.53;101492.94;5054821;28;20048;-61
2022/07/26 06:40:58;;;;;;;10.98;4.00;;;20.40;99.90;;;21.07;83.90;101503.38;5055221;28;20060;-61
2022/07/26 06:43:26;;;;;;;11.68;3.85;;;20.60;99.90;;;21.09;82.05;101506.00;5053836;28;20567;-61
2022/07/26 06:45:55;;;;;;;9.68;3.55;;;20.70;99.90;;;21.22;80.69;101502.78;5054727;28;20049;-61
2022/07/26 06:48:23;;;;;;;8.27;3.45;;;20.80;99.90;;;21.30;80.25;101505.19;5055107;28;20141;-61
2022/07/26 06:50:51;;;;;;;9.10;3.58;;;20.90;99.90;;;21.31;79.55;101504.25;5054721;28;20094;-60
2022/07/26 06:53:20;;;;;;;8.52;3.53;;;21.00;99.90;;;21.39;78.88;101511.06;5054651;28;20491;-60
2022/07/26 06:55:51;;;;;;;8.20;3.38;;;21.00;99.90;;;21.48;78.12;101523.31;5054863;28;20076;-61
2022/07/26 06:58:20;;;;;;;9.05;3.85;;;21.10;99.90;;;21.58;77.54;101509.41;5054455;28;20402;-60
2022/07/26 07:00:48;;;;;;;6.15;3.67;;;21.20;99.90;;;21.67;76.38;101508.19;5054784;28;20060;-61
2022/07/26 07:03:16;;;;;;;9.80;3.42;;;21.40;99.90;;;21.74;75.23;101520.47;5054709;28;20255;-61
2022/07/26 07:05:46;;;;;;;9.68;3.53;;;21.40;99.90;;;21.77;75.01;101530.25;5054564;28;20072;-69
2022/07/26 07:08:18;;;;;;;7.30;3.60;;;21.50;99.90;;;21.68;75.39;101530.63;5054808;28;20049;-61
2022/07/26 07:10:48;;;;;;;12.27;3.67;;;21.40;99.90;;;21.74;75.10;101531.22;5053208;28;20049;-61
2022/07/26 07:13:18;;;;;;;9.77;3.35;;;21.40;99.90;;;21.78;75.11;101532.88;5054087;28;20098;-61
2022/07/26 07:15:46;;;;;;;7.88;3.33;;;21.40;99.90;;;21.74;75.58;101543.84;5054075;28;20457;-60
2022/07/26 07:18:15;;;;;;;12.57;3.45;;;21.40;99.90;;;21.71;76.04;101549.34;5053591;28;20094;-61
2022/07/26 07:20:43;;;;;;;8.20;3.10;;;21.40;99.90;;;21.70;76.06;101547.59;5054422;28;20418;-60
2022/07/26 07:23:12;;;;;;;6.78;3.00;;;21.40;99.90;;;21.76;75.84;101550.03;5054629;28;20178;-60
2022/07/26 07:25:40;;;;;;;7.95;3.03;;;21.40;99.90;;;21.74;75.68;101549.25;5054497;28;20071;-60
2022/07/26 07:28:13;;;;;;;4.75;2.92;;;21.40;99.90;;;21.82;74.94;101547.13;5054268;28;20045;-60
2022/07/26 07:30:42;;;;;;;6.93;3.00;;;21.50;99.90;;;21.76;74.00;101550.91;5086566;28;20053;-60
2022/07/26 07:33:12;;;;;;;7.50;3.03;;;21.40;99.90;;;21.74;73.98;101552.78;5053745;28;20075;-60
2022/07/26 07:35:52;;;;;;;5.82;2.75;;;21.40;99.90;;;21.77;73.60;101563.47;5054041;28;20049;-60
2022/07/26 07:38:20;;;;;;;7.90;3.10;;;21.40;99.90;;;21.71;73.80;101582.53;5053761;28;20098;-59
2022/07/26 07:40:49;;;;;;;8.45;3.47;;;21.50;99.90;;;21.82;74.12;101564.16;5053849;28;20441;-60
2022/07/26 07:43:19;;;;;;;5.43;2.50;;;21.50;99.90;;;21.86;73.93;101559.53;5053580;28;20045;-60
2022/07/26 07:45:47;;;;;;;8.50;2.87;;;21.50;99.90;;;21.81;73.56;101561.53;5053574;28;20048;-60
2022/07/26 07:48:16;;;;;;;8.52;3.25;;;21.50;99.90;;;21.80;73.52;101562.44;5053582;28;20045;-60
2022/07/26 07:50:45;;;;;;;7.75;3.13;;;21.40;99.90;;;21.84;74.02;101562.28;5052554;28;20040;-60
2022/07/26 07:53:13;;;;;;;6.03;3.10;;;21.50;99.90;;;21.95;73.58;101567.28;5053565;28;20049;-60
2022/07/26 07:55:41;;;;;;;8.15;3.22;;;21.50;99.90;;;22.05;73.15;101566.81;5053504;28;20094;-61
2022/07/26 07:58:15;;;;;;;7.38;3.10;;;21.70;99.90;;;22.15;72.76;101556.53;5053222;28;20055;-61
2022/07/26 08:00:47;;;;;;;7.68;3.38;;;21.80;99.90;;;22.20;72.49;101535.69;5053719;28;20049;-61
2022/07/26 08:03:16;;;;;;;7.63;3.28;;;22.00;99.90;;;22.59;72.57;101565.50;5053729;28;20131;-61
2022/07/26 08:05:47;;;;;;;10.23;2.90;;;22.20;99.90;;;22.77;72.14;101565.59;5053179;28;20124;-62
2022/07/26 08:08:18;;;;;;;7.97;2.95;;;22.40;99.90;;;22.91;69.70;101562.28;5052348;28;20057;-61
2022/07/26 08:10:51;;;;;;;6.78;3.08;;;22.60;99.90;;;22.98;67.72;101571.84;5052240;28;20045;-61
2022/07/26 08:13:21;;;;;;;7.47;2.88;;;22.70;99.90;;;23.04;67.70;101564.38;5053559;28;20045;-61
2022/07/26 08:15:53;;;;;;;9.23;3.20;;;22.80;99.90;;;23.08;66.57;101581.31;5053149;28;20045;-61
2022/07/26 08:18:24;;;;;;;9.68;3.22;;;22.80;99.90;;;23.02;65.30;101566.25;5053778;28;20158;-61
2022/07/26 08:20:53;;;;;;;6.57;3.60;;;22.80;99.90;;;23.11;64.65;101584.72;5053080;28;20394;-61
2022/07/26 08:23:23;;;;;;;7.43;2.92;;;22.80;99.90;;;23.14;65.47;101581.91;5053071;28;20060;-61
2022/07/26 08:25:51;;;;;;;5.07;2.60;;;22.80;99.90;;;23.15;64.44;101591.75;5051970;28;20056;-61
2022/07/26 08:28:28;;;;;;;7.88;3.03;;;22.90;99.90;;;23.20;63.83;101596.97;5053061;28;20136;-61
2022/07/26 08:31:19;;;;;;;6.88;3.17;;;22.90;99.90;;;23.07;61.78;101596.59;5052833;28;20073;-61
2022/07/26 08:33:48;;;;;;;6.68;3.05;;;22.80;99.90;;;22.94;62.06;101606.19;5053255;28;20091;-61
2022/07/26 08:36:17;;;;;;;7.93;2.70;;;22.70;99.90;;;22.84;62.98;101590.50;5051913;28;20147;-61
2022/07/26 08:38:46;;;;;;;7.55;3.17;;;22.60;99.90;;;22.94;63.11;101610.72;5052906;28;20453;-61
2022/07/26 08:41:16;;;;;;;7.35;2.92;;;22.60;99.90;;;22.86;62.79;101610.19;5052861;28;20037;-61
2022/07/26 08:43:45;;;;;;;7.50;3.25;;;22.50;99.90;;;22.89;63.49;101624.44;5053132;28;20040;-61
2022/07/26 08:46:24;;;;;;;7.75;3.15;;;22.60;99.90;;;22.89;63.05;101613.63;5052799;28;20048;-62
2022/07/26 08:48:55;;;;;;;6.85;3.17;;;22.60;99.90;;;22.85;62.72;101614.69;5053185;28;20064;-61
2022/07/26 08:51:25;;;;;;;6.05;3.00;;;22.60;99.90;;;22.77;62.25;101614.16;5052732;28;20041;-61
2022/07/26 08:53:57;;;;;;;6.63;2.80;;;22.60;99.90;;;22.62;61.76;101603.13;5052743;28;20102;-61
2022/07/26 08:56:34;;;;;;;7.05;2.88;;;22.50;99.90;;;22.17;61.55;101531.28;5052793;28;20499;-61
2022/07/26 08:59:04;;;;;;;;;;;22.40;99.90;;;22.76;62.58;101622.31;5051943;28;20079;-61
2022/07/26 09:01:35;;;;;;;7.47;3.47;;;22.50;99.90;;;22.24;64.49;101639.75;5053029;28;19928;-61
2022/07/26 09:04:19;;;;;;;7.95;3.30;;;22.10;99.90;;;22.26;64.32;101633.34;5085214;28;20564;-62
2022/07/26 09:07:03;;;;;;;5.53;2.88;;;22.00;99.90;;;22.17;64.31;101633.72;5052780;28;20048;-61
2022/07/26 09:09:33;;;;;;;6.75;3.40;;;21.80;99.90;;;22.17;64.79;101640.91;5052927;28;20091;-62
2022/07/26 09:12:16;;;;;;;9.70;3.47;;;21.90;99.90;;;22.19;65.47;101637.22;5052619;28;20068;-61
2022/07/26 09:14:46;;;;;;;8.57;3.50;;;21.90;99.90;;;22.23;65.64;101646.06;5053135;28;20067;-61
2022/07/26 09:17:20;;;;;;;12.40;3.75;;;21.90;99.90;;;22.08;65.27;101649.38;5052768;28;20128;-61
2022/07/26 09:20:08;;;;;;;9.40;4.05;;;21.80;99.90;;;21.93;65.24;101634.66;5052558;28;20052;-61
2022/07/26 09:22:37;;;;;;;8.57;3.42;;;21.80;99.90;;;22.13;64.36;101659.03;5052443;28;20051;-61
2022/07/26 09:25:21;;;;;;;6.68;2.90;;;21.80;99.90;;;22.19;64.25;101652.50;5051431;28;20487;-61
2022/07/26 09:27:50;;;;;;;5.53;3.22;;;21.90;99.90;;;22.32;64.67;101653.78;5052474;28;20111;-61
2022/07/26 09:30:19;;;;;;;10.45;3.53;;;22.00;99.90;;;22.39;64.03;101649.91;5052340;28;20045;-61
2022/07/26 09:33:01;;;;;;;9.63;3.35;;;22.10;99.90;;;22.49;64.12;101661.19;5052706;28;20033;-62
2022/07/26 09:35:32;;;;;;;10.05;3.40;;;22.20;99.90;;;22.54;63.43;101669.97;5052439;28;20075;-61
2022/07/26 09:38:19;;;;;;;8.80;3.60;;;22.20;99.90;;;22.63;63.25;101670.50;5052629;28;20048;-62
2022/07/26 09:40:47;;;;;;;9.48;3.55;;;22.30;99.90;;;22.67;62.34;101677.53;5052937;28;20045;-61
2022/07/26 09:43:19;;;;;;;4.75;3.28;;;22.40;99.90;;;22.54;62.03;101678.06;5056084;28;20055;-62
2022/07/26 09:46:04;;;;;;;8.18;3.70;;;22.30;99.90;;;22.52;61.35;101683.53;5054880;28;20131;-61
2022/07/26 09:48:37;;;;;;;8.05;3.30;;;22.20;99.90;;;22.53;60.96;101681.72;5056084;28;20049;-61
2022/07/26 09:51:37;;;;;;;13.48;3.70;;;22.20;99.90;;;22.37;60.69;101681.44;5055887;28;20041;-61
2022/07/26 09:54:06;;;;;;;5.63;2.67;;;22.20;99.90;;;22.29;60.41;101665.59;5055912;28;20088;-61
2022/07/26 09:56:48;;;;;;;7.97;3.03;;;22.20;99.90;;;22.39;60.90;101693.94;5056294;28;20080;-61
2022/07/26 09:59:19;;;;;;;6.30;2.95;;;22.10;99.90;;;22.49;60.77;101689.06;5055961;28;20049;-61
2022/07/26 10:01:50;;;;;;;4.28;2.95;;;22.10;99.90;;;22.48;60.63;101698.06;5055620;28;20069;-61
2022/07/26 10:04:21;;;;;;;7.82;3.10;;;22.20;99.90;;;22.57;60.84;101683.38;5055931;28;20410;-61
2022/07/26 10:06:50;;;;;;;10.77;3.42;;;22.30;99.90;;;22.74;60.98;101694.34;5055746;28;20052;-61
2022/07/26 10:09:19;;;;;;;9.65;3.17;;;22.40;99.90;;;22.81;61.16;101707.53;5055453;28;20045;-61
2022/07/26 10:11:53;;;;;;;6.05;2.80;;;22.50;99.90;;;22.84;61.66;101682.25;5055618;28;20411;-61
2022/07/26 10:14:44;;;;;;;8.38;3.28;;;22.60;99.90;;;22.97;60.46;101702.34;5055431;28;20462;-62
2022/07/26 10:17:46;;;;;;;8.57;3.25;;;22.70;99.90;;;23.10;61.10;101709.88;5055407;28;20059;-61
2022/07/26 10:20:50;;;;;;;8.68;3.47;;;22.80;99.90;;;23.30;60.86;101704.50;5055272;28;20049;-61
2022/07/26 10:23:41;;;;;;;12.48;3.85;;;23.00;99.90;;;23.40;60.53;101701.41;5055154;28;20045;-61
2022/07/26 10:26:35;;;;;;;10.93;3.35;;;23.10;99.90;;;23.50;59.92;101714.44;5055336;28;20048;-61
2022/07/26 10:29:26;;;;;;;6.38;2.97;;;23.20;99.90;;;23.55;59.27;101712.44;5055458;28;20045;-61